Time;durP1;ratioP1;P1;durP2;ratioP2;P2;SDS_P1;SDS_P2;PMS_P1;PMS_P2;Temp;Humidity;BMP_temperature;BMP_pressure;BME280_temperature;BME280_humidity;BME280_pressure;Samples;Min_cycle;Max_cycle;Signal;HPM_P1;HPM_P2
2021/08/01 04:00:20;;;;;;;7.00;6.40;;;16.80;99.90;;;;;;5894290;23;20414;-72
2021/08/01 04:02:47;;;;;;;10.23;6.83;;;16.80;99.90;;;;;;4900691;29;20483;-72
2021/08/01 04:05:13;;;;;;;8.33;7.53;;;16.80;99.90;;;;;;4913821;29;20507;-71
2021/08/01 04:07:40;;;;;;;7.77;7.27;;;16.80;99.90;;;;;;4916846;29;21275;-71
2021/08/01 04:10:07;;;;;;;7.83;7.13;;;16.80;99.90;;;;;;4917555;29;20478;-71
2021/08/01 04:12:34;;;;;;;7.80;7.10;;;16.80;99.90;;;;;;4917142;29;20482;-68
2021/08/01 04:15:01;;;;;;;6.80;6.20;;;16.80;99.90;;;;;;4916188;29;20882;-71
2021/08/01 04:17:29;;;;;;;6.83;6.33;;;16.70;99.90;;;;;;4917148;29;20490;-71
2021/08/01 04:19:56;;;;;;;7.17;6.67;;;16.80;99.90;;;;;;4918347;29;20826;-71
2021/08/01 04:22:25;;;;;;;8.43;7.60;;;16.80;99.90;;;;;;4917615;29;20537;-71
2021/08/01 04:24:51;;;;;;;9.93;7.23;;;16.80;99.90;;;;;;4917389;29;20847;-71
2021/08/01 04:27:18;;;;;;;7.80;6.97;;;16.80;99.90;;;;;;4916593;29;20867;-70
2021/08/01 04:29:45;;;;;;;7.77;7.17;;;16.80;99.90;;;;;;4917591;29;20876;-71
2021/08/01 04:32:11;;;;;;;7.47;6.87;;;16.80;99.90;;;;;;4917708;29;20486;-71
2021/08/01 04:34:39;;;;;;;7.63;6.00;;;16.90;99.90;;;;;;4915997;29;20473;-71
2021/08/01 04:37:06;;;;;;;6.40;6.00;;;16.90;99.90;;;;;;4917455;29;20541;-69
2021/08/01 04:39:32;;;;;;;7.00;6.60;;;16.90;99.90;;;;;;4918549;29;20471;-71
2021/08/01 04:42:00;;;;;;;6.70;6.20;;;17.00;99.90;;;;;;4915987;29;20498;-71
2021/08/01 04:44:26;;;;;;;6.20;5.90;;;17.00;99.90;;;;;;4916171;29;20527;-71
2021/08/01 04:46:53;;;;;;;7.67;6.97;;;17.10;99.90;;;;;;4916957;29;20804;-71
2021/08/01 04:49:19;;;;;;;11.83;7.83;;;17.10;99.90;;;;;;4918005;29;20459;-72
2021/08/01 04:51:47;;;;;;;6.13;5.83;;;17.10;99.90;;;;;;4912869;29;20502;-72
2021/08/01 04:54:14;;;;;;;6.50;5.90;;;17.20;99.90;;;;;;4915997;29;20546;-71
2021/08/01 04:56:43;;;;;;;7.47;6.80;;;17.30;99.90;;;;;;4916998;29;20978;-71
2021/08/01 04:59:10;;;;;;;6.47;6.03;;;17.40;99.90;;;;;;4917115;29;20542;-71
2021/08/01 05:01:37;;;;;;;8.23;6.80;;;17.40;99.90;;;;;;4916696;29;20513;-71
2021/08/01 05:04:04;;;;;;;7.27;6.53;;;17.40;99.90;;;;;;4915470;29;20531;-71
2021/08/01 05:06:30;;;;;;;8.70;5.50;;;17.40;99.90;;;;;;4916208;29;21061;-67
2021/08/01 05:08:58;;;;;;;6.70;5.80;;;17.40;99.90;;;;;;4916354;29;20522;-68
2021/08/01 05:11:25;;;;;;;6.93;6.03;;;17.40;99.90;;;;;;4917105;29;20653;-68
2021/08/01 05:13:52;;;;;;;7.40;6.80;;;17.40;99.90;;;;;;4915717;29;20534;-68
2021/08/01 05:16:18;;;;;;;6.67;6.10;;;17.40;99.90;;;;;;4916484;29;21058;-68
2021/08/01 05:18:45;;;;;;;7.00;6.33;;;17.40;99.90;;;;;;4917250;29;20462;-67
2021/08/01 05:21:12;;;;;;;6.90;6.30;;;17.40;99.90;;;;;;4916717;29;20546;-68
2021/08/01 05:23:39;;;;;;;7.20;6.53;;;17.40;99.90;;;;;;4909117;29;20489;-68
2021/08/01 05:26:07;;;;;;;6.70;6.23;;;17.50;99.90;;;;;;4913032;29;20463;-68
2021/08/01 05:28:33;;;;;;;7.57;6.87;;;17.50;99.90;;;;;;4908419;29;20474;-68
2021/08/01 05:31:00;;;;;;;7.77;7.17;;;17.60;99.90;;;;;;4917209;29;20482;-68
2021/08/01 05:33:27;;;;;;;7.77;7.00;;;17.60;99.90;;;;;;4915606;29;20474;-68
2021/08/01 05:35:54;;;;;;;8.13;7.60;;;17.60;99.90;;;;;;4915604;29;20667;-68
2021/08/01 05:38:20;;;;;;;8.40;7.80;;;17.70;99.90;;;;;;4915519;29;20990;-68
2021/08/01 05:40:47;;;;;;;7.67;6.97;;;17.70;99.90;;;;;;4915312;29;20486;-68
2021/08/01 05:43:15;;;;;;;7.70;7.03;;;17.70;99.90;;;;;;4915550;29;20478;-68
2021/08/01 05:45:43;;;;;;;8.60;7.80;;;17.70;99.90;;;;;;4917016;29;20604;-69
2021/08/01 05:48:10;;;;;;;8.53;7.83;;;17.70;99.90;;;;;;4916387;29;20476;-68
2021/08/01 05:50:37;;;;;;;7.83;7.20;;;17.80;99.90;;;;;;4916663;29;20494;-69
2021/08/01 05:53:03;;;;;;;8.87;8.03;;;17.80;99.90;;;;;;4914483;29;20994;-71
2021/08/01 05:55:30;;;;;;;8.40;7.63;;;17.80;99.90;;;;;;4916772;29;20510;-69
2021/08/01 05:57:56;;;;;;;9.50;8.10;;;17.80;99.90;;;;;;4914845;29;20541;-69
2021/08/01 06:00:27;;;;;;;9.53;8.70;;;18.00;99.90;;;;;;4915631;29;20634;-70
2021/08/01 06:02:53;;;;;;;9.07;8.27;;;17.90;99.90;;;;;;4900325;29;20827;-69
2021/08/01 06:05:20;;;;;;;9.90;8.33;;;18.00;99.90;;;;;;4914369;29;20474;-69
2021/08/01 06:07:47;;;;;;;14.00;8.20;;;18.10;99.90;;;;;;4914566;29;20478;-69
2021/08/01 06:10:14;;;;;;;9.50;8.57;;;18.20;99.90;;;;;;4916695;29;20495;-69
2021/08/01 06:12:41;;;;;;;9.90;8.17;;;18.30;99.90;;;;;;4911413;29;20474;-69
2021/08/01 06:15:08;;;;;;;9.60;7.23;;;18.50;99.90;;;;;;4913099;29;20518;-69
2021/08/01 06:17:36;;;;;;;8.63;7.83;;;18.70;99.90;;;;;;4916112;29;20493;-69
2021/08/01 06:20:04;;;;;;;8.37;7.57;;;18.70;99.90;;;;;;4915610;29;20509;-69
2021/08/01 06:22:30;;;;;;;8.13;7.43;;;18.60;99.90;;;;;;4914702;29;20498;-69
2021/08/01 06:24:57;;;;;;;9.33;7.70;;;18.50;99.90;;;;;;4915717;29;21022;-69
2021/08/01 06:27:24;;;;;;;7.63;7.13;;;18.50;99.90;;;;;;4915771;29;20459;-70
2021/08/01 06:29:50;;;;;;;7.33;6.83;;;18.70;99.90;;;;;;4915923;29;20466;-69
2021/08/01 06:32:17;;;;;;;6.40;6.00;;;19.40;99.90;;;;;;4914794;29;21180;-70
2021/08/01 06:34:45;;;;;;;6.70;6.33;;;19.90;99.90;;;;;;4914201;29;20474;-70
2021/08/01 06:37:11;;;;;;;8.37;7.60;;;20.50;99.90;;;;;;4915898;29;20975;-70
2021/08/01 06:39:38;;;;;;;6.97;6.50;;;20.70;99.90;;;;;;4915566;29;20542;-70
2021/08/01 06:42:05;;;;;;;7.20;6.70;;;20.70;99.90;;;;;;4914877;29;20546;-69
2021/08/01 06:44:31;;;;;;;7.50;6.80;;;20.40;99.90;;;;;;4914237;29;20481;-70
2021/08/01 06:46:58;;;;;;;7.40;6.87;;;20.20;99.90;;;;;;4914500;29;20517;-70
2021/08/01 06:49:25;;;;;;;6.90;6.30;;;19.90;99.90;;;;;;4915767;29;20951;-70
2021/08/01 06:51:53;;;;;;;7.80;7.20;;;19.70;99.90;;;;;;4912382;29;20551;-70
2021/08/01 06:54:19;;;;;;;8.53;7.83;;;19.80;99.90;;;;;;4914167;29;20971;-70
2021/08/01 06:56:46;;;;;;;6.97;6.40;;;19.80;99.90;;;;;;4913647;29;20474;-69
2021/08/01 06:59:12;;;;;;;7.90;7.33;;;19.80;99.90;;;;;;4915347;29;20461;-69
2021/08/01 07:01:39;;;;;;;7.63;7.13;;;19.70;99.90;;;;;;4914912;29;20549;-70
2021/08/01 07:04:06;;;;;;;8.47;7.77;;;19.70;99.90;;;;;;4914563;29;20471;-69
2021/08/01 07:06:33;;;;;;;8.17;7.57;;;19.90;99.90;;;;;;4912307;29;20848;-70
2021/08/01 07:09:01;;;;;;;8.70;7.50;;;20.30;99.90;;;;;;4912988;29;20478;-71
2021/08/01 07:11:28;;;;;;;7.93;7.00;;;20.30;99.90;;;;;;4915323;29;20513;-70
2021/08/01 07:13:54;;;;;;;7.13;6.50;;;20.30;99.90;;;;;;4913981;29;20534;-69
2021/08/01 07:16:21;;;;;;;7.70;7.10;;;20.50;99.90;;;;;;4914896;29;20479;-69
2021/08/01 07:18:47;;;;;;;7.47;6.93;;;20.90;99.90;;;;;;4913399;29;20922;-73
2021/08/01 07:21:14;;;;;;;7.83;7.27;;;21.20;99.90;;;;;;4915943;29;20489;-69
2021/08/01 07:23:41;;;;;;;6.63;6.33;;;21.30;99.90;;;;;;4913411;29;20553;-69
2021/08/01 07:26:09;;;;;;;8.00;7.40;;;21.30;99.90;;;;;;4915579;29;20463;-68
2021/08/01 07:28:35;;;;;;;7.20;6.70;;;21.20;99.90;;;;;;4912636;29;20541;-73
2021/08/01 07:31:02;;;;;;;6.47;5.83;;;21.50;99.90;;;;;;4911836;29;20522;-68
2021/08/01 07:33:29;;;;;;;8.60;6.10;;;21.90;99.90;;;;;;4910845;29;20509;-71
2021/08/01 07:35:57;;;;;;;6.00;5.60;;;21.90;99.90;;;;;;4907013;29;20880;-71
2021/08/01 07:38:25;;;;;;;6.63;6.13;;;21.80;99.90;;;;;;4913072;29;20909;-71
2021/08/01 07:40:52;;;;;;;6.13;5.83;;;21.70;99.90;;;;;;4912608;29;20511;-71
2021/08/01 07:43:20;;;;;;;5.60;5.30;;;22.00;99.90;;;;;;4913229;29;20475;-71
2021/08/01 07:45:46;;;;;;;6.23;5.73;;;22.50;99.90;;;;;;4915129;29;20466;-72
2021/08/01 07:48:13;;;;;;;6.10;5.80;;;22.80;99.90;;;;;;4913633;29;20522;-71
2021/08/01 07:50:40;;;;;;;5.60;5.30;;;22.80;99.90;;;;;;4915501;29;20573;-71
2021/08/01 07:53:06;;;;;;;5.93;5.40;;;22.50;99.90;;;;;;4912452;29;20501;-71
2021/08/01 07:55:33;;;;;;;4.93;4.63;;;22.20;99.90;;;;;;4915155;29;20592;-70
2021/08/01 07:58:00;;;;;;;5.57;5.17;;;22.10;99.90;;;;;;4914595;29;20490;-69
2021/08/01 08:00:28;;;;;;;5.27;4.87;;;21.90;99.90;;;;;;4915113;29;20486;-69
2021/08/01 08:02:54;;;;;;;5.93;5.53;;;21.80;99.90;;;;;;4915759;29;20994;-69
2021/08/01 08:05:21;;;;;;;5.40;4.90;;;21.70;99.90;;;;;;4917423;29;20529;-69
2021/08/01 08:07:48;;;;;;;5.30;5.00;;;21.80;99.90;;;;;;4914409;29;20534;-68
2021/08/01 08:10:15;;;;;;;8.17;5.60;;;21.80;99.90;;;;;;4915046;29;20545;-69
2021/08/01 08:12:41;;;;;;;6.10;5.60;;;21.60;99.90;;;;;;4904085;29;20475;-69
2021/08/01 08:15:09;;;;;;;5.50;5.00;;;21.60;99.90;;;;;;4906171;29;20475;-68
2021/08/01 08:17:37;;;;;;;5.93;5.63;;;21.70;99.90;;;;;;4914767;29;20890;-68
2021/08/01 08:20:06;;;;;;;5.00;4.60;;;21.80;99.90;;;;;;4915411;29;20802;-69
2021/08/01 08:22:34;;;;;;;5.27;4.97;;;21.90;99.90;;;;;;4918006;29;20522;-68
2021/08/01 08:25:01;;;;;;;5.63;5.33;;;21.90;99.90;;;;;;4918354;29;20481;-68
2021/08/01 08:27:27;;;;;;;5.03;4.73;;;21.70;99.90;;;;;;4914094;29;20521;-69
2021/08/01 08:29:54;;;;;;;4.63;4.33;;;21.90;99.90;;;;;;4918143;29;20494;-69
2021/08/01 08:32:21;;;;;;;4.50;4.33;;;21.90;99.90;;;;;;4918164;29;20537;-69
2021/08/01 08:34:49;;;;;;;5.03;4.83;;;21.60;99.90;;;;;;4917974;29;20463;-69
2021/08/01 08:37:15;;;;;;;4.97;4.67;;;21.50;99.90;;;;;;4917311;29;20483;-69
2021/08/01 08:39:42;;;;;;;8.17;4.50;;;21.40;99.90;;;;;;4918053;29;20932;-70
2021/08/01 08:42:09;;;;;;;5.90;5.37;;;21.30;99.90;;;;;;4917110;29;20497;-69
2021/08/01 08:44:36;;;;;;;4.60;4.37;;;21.10;99.90;;;;;;4918558;29;20533;-69
2021/08/01 08:47:04;;;;;;;8.47;5.10;;;21.10;99.90;;;;;;4917955;29;20467;-69
2021/08/01 08:49:34;;;;;;;4.40;4.27;;;21.30;99.90;;;;;;4917738;29;20573;-69
2021/08/01 08:52:05;;;;;;;5.17;4.70;;;21.40;99.90;;;;;;4900838;29;20547;-70
2021/08/01 08:54:38;;;;;;;4.70;4.40;;;21.40;99.90;;;;;;4917568;29;20481;-69
2021/08/01 08:57:12;;;;;;;5.40;5.00;;;21.80;99.90;;;;;;4917835;29;20813;-69
2021/08/01 08:59:39;;;;;;;5.07;4.77;;;21.90;99.90;;;;;;4917961;29;20462;-69
2021/08/01 09:02:05;;;;;;;5.03;4.57;;;22.00;99.90;;;;;;4917279;29;21006;-69
2021/08/01 09:04:33;;;;;;;5.47;5.07;;;22.10;99.90;;;;;;4916781;29;20462;-69
2021/08/01 09:06:59;;;;;;;5.00;4.70;;;22.10;99.90;;;;;;4917688;29;20931;-69
2021/08/01 09:09:27;;;;;;;4.90;4.60;;;22.30;99.90;;;;;;4917033;29;20823;-70
2021/08/01 09:11:54;;;;;;;4.03;3.90;;;22.30;99.90;;;;;;4917051;29;20486;-69
2021/08/01 09:14:22;;;;;;;4.40;4.20;;;22.10;99.90;;;;;;4917167;29;20538;-69
2021/08/01 09:16:50;;;;;;;4.70;4.40;;;22.10;99.90;;;;;;4917227;29;20462;-69
2021/08/01 09:19:29;;;;;;;4.33;4.23;;;22.40;99.90;;;;;;4917370;29;20514;-69
2021/08/01 09:22:10;;;;;;;3.13;3.03;;;22.40;99.90;;;;;;4917348;29;20549;-69
2021/08/01 09:24:38;;;;;;;3.97;3.77;;;22.40;99.90;;;;;;4917459;29;20466;-69
2021/08/01 09:27:05;;;;;;;3.40;3.33;;;22.40;99.90;;;;;;4913903;29;20470;-69
2021/08/01 09:29:32;;;;;;;3.77;3.57;;;22.20;99.90;;;;;;4917023;29;20481;-70
2021/08/01 09:32:00;;;;;;;3.10;3.00;;;22.00;99.90;;;;;;4916379;29;20490;-70
2021/08/01 09:34:28;;;;;;;3.70;3.50;;;22.00;99.90;;;;;;4916559;29;20466;-71
2021/08/01 09:37:00;;;;;;;3.43;3.33;;;22.00;99.90;;;;;;4916211;29;20487;-69
2021/08/01 09:39:28;;;;;;;3.67;3.57;;;22.00;99.90;;;;;;4913115;29;20531;-70
2021/08/01 09:42:03;;;;;;;3.33;3.20;;;22.00;99.90;;;;;;4914347;29;20502;-70
2021/08/01 09:44:30;;;;;;;3.30;3.10;;;22.00;99.90;;;;;;4917045;29;20466;-69
2021/08/01 09:46:58;;;;;;;3.43;3.33;;;22.00;99.90;;;;;;4917039;29;21026;-69
2021/08/01 09:49:26;;;;;;;3.70;3.43;;;22.00;99.90;;;;;;4915695;29;20578;-69
2021/08/01 09:51:54;;;;;;;5.13;3.47;;;22.20;99.90;;;;;;4916653;29;20846;-69
2021/08/01 09:54:25;;;;;;;3.80;3.50;;;22.50;99.90;;;;;;4915554;29;20474;-72
2021/08/01 09:56:56;;;;;;;3.40;3.20;;;22.70;99.90;;;;;;4916755;29;21569;-69
2021/08/01 09:59:25;;;;;;;3.00;2.70;;;22.70;99.90;;;;;;4919933;29;20538;-70
2021/08/01 10:01:54;;;;;;;2.73;2.73;;;22.60;99.90;;;;;;4918018;29;20506;-69
2021/08/01 10:04:25;;;;;;;2.80;2.67;;;22.50;99.90;;;;;;4916938;29;20470;-69
2021/08/01 10:07:02;;;;;;;2.77;2.73;;;22.50;99.90;;;;;;4916276;29;20467;-69
2021/08/01 10:09:29;;;;;;;2.80;2.70;;;22.50;99.90;;;;;;4917789;29;20990;-69
2021/08/01 10:11:56;;;;;;;2.93;2.93;;;22.40;99.90;;;;;;4906120;29;20494;-71
2021/08/01 10:14:24;;;;;;;2.20;2.10;;;22.50;99.90;;;;;;4916383;29;20471;-71
2021/08/01 10:16:51;;;;;;;2.40;2.40;;;22.70;99.90;;;;;;4913298;29;20858;-71
2021/08/01 10:19:19;;;;;;;2.00;2.00;;;22.80;99.90;;;;;;4908005;29;20491;-71
2021/08/01 10:21:49;;;;;;;2.60;2.43;;;22.70;99.90;;;;;;4905041;29;20994;-70
2021/08/01 10:24:19;;;;;;;2.40;2.30;;;22.90;99.90;;;;;;4913281;29;20466;-70
2021/08/01 10:26:48;;;;;;;2.03;2.03;;;23.10;99.90;;;;;;4914971;29;20471;-70
2021/08/01 10:29:21;;;;;;;2.50;2.40;;;23.20;99.90;;;;;;4913840;29;20549;-70
2021/08/01 10:31:54;;;;;;;1.90;1.90;;;23.10;99.90;;;;;;4908149;29;20489;-70
2021/08/01 10:34:35;;;;;;;2.13;2.13;;;23.30;99.90;;;;;;4914906;29;20478;-71
2021/08/01 10:37:06;;;;;;;1.80;1.80;;;23.40;99.90;;;;;;4915227;29;20486;-70
2021/08/01 10:39:34;;;;;;;2.20;2.20;;;23.70;99.90;;;;;;4915442;29;20483;-71
2021/08/01 10:42:06;;;;;;;2.43;2.33;;;23.70;99.90;;;;;;4915230;29;20529;-72
2021/08/01 10:44:33;;;;;;;2.23;2.23;;;23.70;99.90;;;;;;4915944;29;20454;-71
2021/08/01 10:47:04;;;;;;;2.60;2.50;;;23.50;99.90;;;;;;4915700;29;20530;-71
2021/08/01 10:49:31;;;;;;;1.93;1.93;;;23.40;99.90;;;;;;4897803;29;20456;-73
2021/08/01 10:51:58;;;;;;;2.87;2.87;;;23.10;99.90;;;;;;4897691;29;20483;-72
2021/08/01 10:54:53;;;;;;;2.63;2.30;;;22.90;99.90;;;;;;4900019;29;21019;-71
2021/08/01 10:57:20;;;;;;;3.00;2.90;;;22.70;99.90;;;;;;4911302;29;20499;-71
2021/08/01 11:00:09;;;;;;;2.77;2.67;;;22.50;99.90;;;;;;4914231;29;20483;-72
2021/08/01 11:02:38;;;;;;;2.30;2.30;;;22.50;99.90;;;;;;4906536;29;20478;-72
2021/08/01 11:05:39;;;;;;;2.23;2.23;;;22.60;99.90;;;;;;4916370;29;20494;-72
2021/08/01 11:08:08;;;;;;;2.80;2.80;;;22.80;99.90;;;;;;4896401;29;20470;-72
2021/08/01 11:10:36;;;;;;;3.00;2.90;;;23.00;99.90;;;;;;4897368;29;20495;-70
2021/08/01 11:13:39;;;;;;;2.43;2.43;;;23.00;99.90;;;;;;4897322;29;20474;-72
2021/08/01 11:16:08;;;;;;;2.73;2.67;;;23.00;99.90;;;;;;4902545;29;20458;-72
2021/08/01 11:18:37;;;;;;;3.10;2.60;;;22.80;99.90;;;;;;4915588;29;20490;-72
2021/08/01 11:21:04;;;;;;;2.93;2.73;;;22.70;99.90;;;;;;4915705;29;20498;-73
2021/08/01 11:24:09;;;;;;;2.60;2.60;;;22.70;99.90;;;;;;4915251;29;20473;-73
2021/08/01 11:26:38;;;;;;;2.47;2.47;;;22.80;99.90;;;;;;4915114;29;20470;-73
2021/08/01 11:29:07;;;;;;;2.17;2.10;;;22.70;99.90;;;;;;4915556;29;20567;-72
2021/08/01 11:31:34;;;;;;;2.97;2.90;;;22.70;99.90;;;;;;4915520;29;20502;-72
2021/08/01 11:34:18;;;;;;;2.40;2.40;;;22.70;99.90;;;;;;4915311;29;20518;-72
2021/08/01 11:36:45;;;;;;;2.83;2.83;;;22.70;99.90;;;;;;4915095;29;20919;-71
2021/08/01 11:39:12;;;;;;;3.00;2.90;;;22.60;99.90;;;;;;4915613;29;20877;-72
2021/08/01 11:41:41;;;;;;;3.43;3.30;;;22.60;99.90;;;;;;4896632;29;20490;-71
2021/08/01 11:44:12;;;;;;;3.30;3.20;;;22.50;99.90;;;;;;4896349;29;20567;-72
2021/08/01 11:47:04;;;;;;;3.27;3.17;;;22.40;99.90;;;;;;4906894;29;20461;-67
2021/08/01 11:49:34;;;;;;;3.37;3.07;;;22.60;99.90;;;;;;4912493;29;20474;-68
2021/08/01 11:52:02;;;;;;;3.30;3.20;;;22.70;99.90;;;;;;4908533;29;20495;-69
2021/08/01 11:54:31;;;;;;;2.50;2.40;;;22.70;99.90;;;;;;4911676;29;20463;-68
2021/08/01 11:57:00;;;;;;;2.90;2.70;;;22.80;99.90;;;;;;4918383;29;20637;-68
2021/08/01 11:59:27;;;;;;;2.90;2.80;;;22.80;99.90;;;;;;4919349;29;20548;-69
2021/08/01 12:01:55;;;;;;;3.20;3.17;;;22.90;99.90;;;;;;4919347;29;20526;-69
2021/08/01 12:04:23;;;;;;;3.23;3.13;;;22.90;99.90;;;;;;4919277;29;20469;-68
2021/08/01 12:06:53;;;;;;;4.60;4.30;;;22.80;99.90;;;;;;4919210;29;20486;-68
2021/08/01 12:09:21;;;;;;;3.40;3.30;;;22.70;99.90;;;;;;4918403;29;20474;-72
2021/08/01 12:11:50;;;;;;;3.60;3.40;;;22.60;99.90;;;;;;4914958;29;21006;-71
2021/08/01 12:14:16;;;;;;;3.53;3.43;;;22.40;99.90;;;;;;4902396;29;20950;-72
2021/08/01 12:17:00;;;;;;;3.63;3.53;;;22.40;99.90;;;;;;4918324;29;20522;-68
2021/08/01 12:19:29;;;;;;;3.63;3.43;;;22.50;99.90;;;;;;4918397;29;20484;-69
2021/08/01 12:21:59;;;;;;;3.73;3.63;;;22.50;99.90;;;;;;4917593;29;20509;-69
2021/08/01 12:24:27;;;;;;;4.00;3.80;;;22.60;99.90;;;;;;4916806;29;20469;-70
2021/08/01 12:26:59;;;;;;;3.90;3.73;;;22.70;99.90;;;;;;4918738;29;20474;-72
2021/08/01 12:29:30;;;;;;;3.40;3.40;;;22.70;99.90;;;;;;4919587;29;20459;-73
2021/08/01 12:31:57;;;;;;;3.90;3.80;;;22.80;99.90;;;;;;4918134;29;20490;-69
2021/08/01 12:34:24;;;;;;;4.20;4.00;;;22.80;99.90;;;;;;4913367;29;20553;-72
2021/08/01 12:36:50;;;;;;;3.63;3.53;;;22.80;99.90;;;;;;4916515;29;20877;-72
2021/08/01 12:39:20;;;;;;;3.60;3.50;;;22.90;99.90;;;;;;4914093;29;20506;-73
2021/08/01 12:41:48;;;;;;;3.87;3.77;;;22.90;99.90;;;;;;4917644;29;20596;-68
2021/08/01 12:44:16;;;;;;;3.70;3.50;;;22.90;99.90;;;;;;4917756;29;21002;-69
2021/08/01 12:46:42;;;;;;;4.03;3.93;;;23.10;99.90;;;;;;4917764;29;20470;-69
2021/08/01 12:49:10;;;;;;;3.50;3.40;;;23.10;99.90;;;;;;4917522;29;20467;-68
2021/08/01 12:51:40;;;;;;;3.50;3.40;;;23.20;99.90;;;;;;4903559;29;20495;-69
2021/08/01 12:54:09;;;;;;;3.63;3.33;;;23.20;99.90;;;;;;4908808;29;20541;-69
2021/08/01 12:56:37;;;;;;;3.70;3.40;;;23.20;99.90;;;;;;4917281;29;21069;-68
2021/08/01 12:59:11;;;;;;;2.67;2.67;;;23.40;99.90;;;;;;4916401;29;20498;-69
2021/08/01 13:01:40;;;;;;;2.50;2.50;;;23.40;99.90;;;;;;4912222;29;20479;-68
2021/08/01 13:04:07;;;;;;;2.70;2.60;;;23.40;99.90;;;;;;4916960;29;20489;-69
2021/08/01 13:06:35;;;;;;;2.73;2.73;;;23.40;99.90;;;;;;4898580;29;20951;-69
2021/08/01 13:09:05;;;;;;;2.40;2.37;;;23.40;99.90;;;;;;4901754;29;20467;-70
2021/08/01 13:11:33;;;;;;;2.60;2.60;;;23.40;99.90;;;;;;4902825;29;20525;-70
2021/08/01 13:14:03;;;;;;;3.63;3.33;;;23.40;99.90;;;;;;4909287;29;20475;-70
2021/08/01 13:16:49;;;;;;;3.20;3.10;;;23.20;99.90;;;;;;4917671;29;20557;-69
2021/08/01 13:19:18;;;;;;;4.30;4.00;;;22.90;99.90;;;;;;4916252;29;20501;-67
2021/08/01 13:22:04;;;;;;;3.30;3.20;;;22.40;99.90;;;;;;4917387;29;21020;-68
2021/08/01 13:24:34;;;;;;;2.50;2.40;;;21.30;99.90;;;;;;4913487;29;20558;-69
2021/08/01 13:27:01;;;;;;;3.00;2.90;;;20.40;99.90;;;;;;4915186;29;20470;-68
2021/08/01 13:29:29;;;;;;;3.00;2.90;;;19.90;99.90;;;;;;4916122;29;20545;-69
2021/08/01 13:31:56;;;;;;;2.80;2.70;;;19.70;99.90;;;;;;4917085;29;20489;-69
2021/08/01 13:34:35;;;;;;;3.57;3.47;;;19.50;99.90;;;;;;4916011;29;21019;-69
2021/08/01 13:37:02;;;;;;;4.87;4.63;;;19.30;99.90;;;;;;4912112;29;20474;-69
2021/08/01 13:39:30;;;;;;;5.23;4.93;;;19.00;99.90;;;;;;4913954;29;20482;-69
2021/08/01 13:42:04;;;;;;;4.50;4.30;;;18.60;99.90;;;;;;4908241;29;20493;-70
2021/08/01 13:44:34;;;;;;;4.20;4.07;;;18.40;99.90;;;;;;4915012;29;20477;-69
2021/08/01 13:47:15;;;;;;;4.50;4.30;;;18.30;99.90;;;;;;4916895;29;20481;-69
2021/08/01 13:49:44;;;;;;;4.53;4.20;;;18.30;99.90;;;;;;4916907;29;20455;-68
2021/08/01 13:52:11;;;;;;;4.43;4.13;;;18.30;99.90;;;;;;4915939;29;20543;-70
2021/08/01 13:54:38;;;;;;;5.80;5.40;;;18.10;99.90;;;;;;4916840;29;20526;-69
2021/08/01 13:57:06;;;;;;;5.10;4.90;;;17.90;99.90;;;;;;4913004;29;20823;-70
2021/08/01 13:59:34;;;;;;;6.30;5.60;;;17.80;99.90;;;;;;4916401;29;20561;-69
2021/08/01 14:02:01;;;;;;;5.80;5.50;;;17.80;99.90;;;;;;4913513;29;21029;-69
2021/08/01 14:04:28;;;;;;;5.37;5.07;;;17.60;99.90;;;;;;4915410;29;20478;-69
2021/08/01 14:06:55;;;;;;;5.23;4.93;;;17.50;99.90;;;;;;4916712;29;20488;-69
2021/08/01 14:09:22;;;;;;;6.50;5.90;;;17.50;99.90;;;;;;4913182;29;20554;-69
2021/08/01 14:11:50;;;;;;;6.23;5.73;;;17.60;99.90;;;;;;4908243;29;20487;-69
2021/08/01 14:14:17;;;;;;;5.37;5.00;;;17.60;99.90;;;;;;4908948;29;20567;-69
2021/08/01 14:16:45;;;;;;;5.70;5.50;;;17.70;99.90;;;;;;4912460;29;20462;-70
2021/08/01 14:19:12;;;;;;;6.20;5.80;;;17.70;99.90;;;;;;4905229;29;20497;-70
2021/08/01 14:21:38;;;;;;;6.43;6.13;;;17.80;99.90;;;;;;4906074;29;21062;-69
2021/08/01 14:24:06;;;;;;;6.57;6.13;;;17.90;99.90;;;;;;4914478;29;20866;-70
2021/08/01 14:26:36;;;;;;;6.43;6.03;;;18.00;99.90;;;;;;4915174;29;20462;-69
2021/08/01 14:29:04;;;;;;;5.60;5.40;;;18.10;99.90;;;;;;4915961;29;20458;-69
2021/08/01 14:31:31;;;;;;;6.93;6.47;;;18.10;99.90;;;;;;4915456;29;20545;-69
2021/08/01 14:34:02;;;;;;;5.90;5.40;;;18.20;99.90;;;;;;4915792;29;20514;-69
2021/08/01 14:36:30;;;;;;;5.23;4.93;;;18.50;99.90;;;;;;4916379;29;20757;-69
2021/08/01 14:38:57;;;;;;;4.33;4.20;;;18.60;99.90;;;;;;4915108;29;20577;-69
2021/08/01 14:41:24;;;;;;;4.07;3.87;;;18.70;99.90;;;;;;4915972;29;20530;-70
2021/08/01 14:43:51;;;;;;;3.60;3.40;;;18.70;99.90;;;;;;4915224;29;20562;-68
2021/08/01 14:46:18;;;;;;;3.80;3.70;;;18.80;99.90;;;;;;4915202;29;20470;-69
2021/08/01 14:48:46;;;;;;;4.27;4.07;;;18.80;99.90;;;;;;4915688;29;20459;-69
2021/08/01 14:52:58;;;;;;;4.27;4.10;;;18.80;99.90;;;;;;4915532;29;21027;-69
2021/08/01 14:54:08;;;;;;;4.27;4.07;;;18.80;99.90;;;;;;4915250;29;20516;-68
2021/08/01 14:56:35;;;;;;;3.57;3.47;;;18.80;99.90;;;;;;4915738;29;20981;-69
2021/08/01 14:59:06;;;;;;;4.20;4.00;;;18.90;99.90;;;;;;4915870;29;20225;-70
2021/08/01 15:01:37;;;;;;;4.27;4.10;;;19.00;99.90;;;;;;4911234;29;20562;-70
2021/08/01 15:04:15;;;;;;;4.33;4.23;;;19.10;99.90;;;;;;4915945;29;20796;-71
2021/08/01 15:06:46;;;;;;;3.30;3.30;;;19.00;99.90;;;;;;4905350;29;20462;-70
2021/08/01 15:09:22;;;;;;;4.00;3.90;;;18.90;99.90;;;;;;4900608;29;20485;-70
2021/08/01 15:11:56;;;;;;;4.33;4.23;;;18.90;99.90;;;;;;4914372;29;20493;-70
2021/08/01 15:14:30;;;;;;;4.80;4.60;;;19.00;99.90;;;;;;4916162;29;20470;-70
2021/08/01 15:17:12;;;;;;;4.20;3.90;;;19.00;99.90;;;;;;4916879;29;20462;-70
2021/08/01 15:19:44;;;;;;;4.10;4.00;;;19.00;99.90;;;;;;4905918;29;20474;-71
2021/08/01 15:22:24;;;;;;;4.10;3.90;;;19.10;99.90;;;;;;4898127;29;20495;-71
2021/08/01 15:24:52;;;;;;;4.40;4.20;;;19.20;99.90;;;;;;4916176;29;20497;-72
2021/08/01 15:27:19;;;;;;;4.07;3.87;;;19.40;99.90;;;;;;4915245;29;20495;-71
2021/08/01 15:29:47;;;;;;;4.10;3.90;;;19.60;99.90;;;;;;4917294;29;20454;-70
2021/08/01 15:32:16;;;;;;;2.97;2.87;;;19.90;99.90;;;;;;4906874;29;20537;-72
2021/08/01 15:34:45;;;;;;;3.00;2.90;;;19.90;99.90;;;;;;4919646;29;20479;-72
2021/08/01 15:37:15;;;;;;;3.03;2.90;;;20.00;99.90;;;;;;4920052;29;20541;-71
2021/08/01 15:39:42;;;;;;;2.93;2.77;;;19.90;99.90;;;;;;4915725;29;20494;-71
2021/08/01 15:42:09;;;;;;;2.90;2.90;;;20.00;99.90;;;;;;4900206;29;20582;-71
2021/08/01 15:44:37;;;;;;;2.90;2.90;;;20.00;99.90;;;;;;4911022;29;20844;-71
2021/08/01 15:47:04;;;;;;;2.93;2.73;;;20.20;99.90;;;;;;4919520;29;20524;-72
2021/08/01 15:49:31;;;;;;;2.43;2.33;;;20.30;99.90;;;;;;4918732;29;20931;-72
2021/08/01 15:51:59;;;;;;;2.13;2.13;;;20.50;99.90;;;;;;4915497;29;20482;-71
2021/08/01 15:54:33;;;;;;;2.50;2.40;;;20.60;99.90;;;;;;4916872;29;20462;-71
2021/08/01 15:57:01;;;;;;;2.07;2.03;;;20.70;99.90;;;;;;4918989;29;20858;-71
2021/08/01 15:59:39;;;;;;;2.10;2.10;;;20.80;99.90;;;;;;4918549;29;20466;-71
2021/08/01 16:02:16;;;;;;;2.30;2.20;;;21.00;99.90;;;;;;4918530;29;20577;-69
2021/08/01 16:04:50;;;;;;;1.93;1.93;;;21.00;99.90;;;;;;4919059;29;20560;-70
2021/08/01 16:07:22;;;;;;;1.60;1.60;;;20.90;99.90;;;;;;4918374;29;20549;-70
2021/08/01 16:09:54;;;;;;;2.33;2.13;;;20.90;99.90;;;;;;4906242;29;20549;-71
2021/08/01 16:12:29;;;;;;;1.80;1.80;;;20.80;99.90;;;;;;4915432;29;20569;-70
2021/08/01 16:15:02;;;;;;;1.60;1.60;;;20.70;99.90;;;;;;4917977;29;20962;-71
2021/08/01 16:17:34;;;;;;;2.00;2.00;;;20.50;99.90;;;;;;4918409;29;20465;-70
2021/08/01 16:20:01;;;;;;;1.93;1.93;;;20.50;99.90;;;;;;4918297;29;20541;-71
2021/08/01 16:22:28;;;;;;;1.70;1.70;;;20.50;99.90;;;;;;4917930;29;20486;-70
2021/08/01 16:24:58;;;;;;;1.67;1.67;;;20.40;99.90;;;;;;4919101;29;20531;-71
2021/08/01 16:27:24;;;;;;;1.80;1.80;;;20.30;99.90;;;;;;4917755;29;20479;-70
2021/08/01 16:29:51;;;;;;;1.37;1.37;;;20.30;99.90;;;;;;4919047;29;20478;-71
2021/08/01 16:32:19;;;;;;;1.67;1.67;;;20.30;99.90;;;;;;4917721;29;20494;-71
2021/08/01 16:34:48;;;;;;;1.67;1.67;;;20.50;99.90;;;;;;4918654;29;20474;-71
2021/08/01 16:37:17;;;;;;;1.40;1.40;;;20.70;99.90;;;;;;4919066;29;20462;-71
2021/08/01 16:39:44;;;;;;;1.70;1.70;;;20.90;99.90;;;;;;4919520;29;20470;-71
2021/08/01 16:42:21;;;;;;;1.27;1.27;;;20.90;99.90;;;;;;4917264;29;20500;-70
2021/08/01 16:44:53;;;;;;;1.20;1.20;;;20.80;99.90;;;;;;4918896;29;20938;-70
2021/08/01 16:47:27;;;;;;;1.30;1.30;;;20.70;99.90;;;;;;4918278;29;20809;-71
2021/08/01 16:49:59;;;;;;;1.50;1.50;;;20.50;99.90;;;;;;4902991;29;20451;-71
2021/08/01 16:52:31;;;;;;;1.20;1.20;;;20.40;99.90;;;;;;4918224;29;20493;-71
2021/08/01 16:55:09;;;;;;;1.33;1.33;;;20.40;99.90;;;;;;4917099;29;20915;-71